Partly Cloudy Current Weather (METAR) For Antalya Airport

All times on the weather descriptions are local

Observed at 14:50 - (18 mins ago)

Partly Cloudy

22°C

Partly Cloudy
Clouds: Scattered Clouds at 3,000ft
Wind: 180° at 14 knots
Visibility: Greater than 10km
QNH: 1013
Dew Point: 12°C
Runway in Use: Runways 18L/C/R

Sunrise Today: 06:12
Sunset Today: 19:38

Forecast Weather (TAF) For Antalya Airport

Issued at 03:00 - (8 days 11 hrs ago)


Runway in Use: Unable to determine, wind is clam

Forecast valid until 03:00 on Wednesday

METAR/TAF RAW METAR / TAF

LTAI 211150Z 18014KT 9999 SCT030 22/12 Q1013 NOSIG

Weather Widget

Put weather from any of our airports on your website with our weather widget.

Find Another Search

Airport Search


Please Wait Please Wait - Loading
Close
Close

Login

Username:

Password:

Remember Me:

Remember me on this computer

Forgotten your password? Get a reset password sent to your registered e-mail address

Close

User Private Message

Subject:

Message: